x

St. Augustine, Fl (sauf1) Weather Station

1:00pm - Tue 24th May 2016 All times are EDT. -4 hours from GMT.

  • Wind
    11mph, 13mph gusts
  • Sea Temp 80°f
  • Air Temp 78°f
  • Sea Pressure 1022mb
  • St. Augustine, Fl
  • St. Augustine, Fl

More Historic Weather Station data

Upgrade to MSW Pro to gain access to the past 30 days of data for over 8000 Wavebouys and Weather Stations around the globe.

Join Pro

Comparision Forecast

View Surf forecast
   
Tue 05/24 1:00pm 11 13 mph 1022mb 80f 78f
12:00pm 9 10 mph 1022mb 79f 78f
11:00am 10
mph
1021.4mb 79f 77f
10:00am 8 9 mph 1021.1mb 78f 77f
9:00am 8 9 mph 1020.5mb 78f 77f
8:00am 10
mph
1019.6mb 78f 77f
7:00am 11 14 mph 1019mb 78f 77f
6:00am 11 13 mph 1018.4mb 78f 77f
5:00am 10
mph
1017.9mb 78f 77f
4:00am  -  1 mph 1017.6mb 78f 70f
3:00am 5
mph
1017.5mb 79f 71f
2:00am 3 5 mph 1018mb 79f 72f
1:00am 11 13 mph 1018.2mb 79f 77f
12:00am 13
mph
1018mb 80f 77f
Mon 05/23 11:00pm 13 14 mph 1017.5mb 80f 77f
10:00pm 11 14 mph 1016.9mb 80f 77f
9:00pm 11 13 mph 1016mb 80f 77f
8:00pm 13 14 mph 1015.3mb 80f 77f
7:00pm 13 14 mph 1014.8mb 81f 77f
6:00pm 13 14 mph 1014.8mb 81f 77f
5:00pm 11 13 mph 1014.7mb 81f 76f
4:00pm 11 13 mph 1015mb 81f 76f
3:00pm 10 11 mph 1015.4mb 80f 76f
2:00pm 11 14 mph 1015.5mb 80f 75f
1:00pm 10 11 mph 1015.9mb 80f 75f
12:00pm 8 9 mph 1016mb 79f 75f
11:00am 6 8 mph 1016mb 79f 75f
10:00am 8
mph
1015.7mb 78f 75f
9:00am 3
mph
1015.5mb 77f 75f
8:00am 5 6 mph 1015mb 77f 70f
7:00am 6 7 mph 1014.4mb 78f 66f
6:00am 8 9 mph 1013.5mb 77f 67f
5:00am 8 9 mph 1013.1mb 77f 67f
4:00am 7 8 mph 1013.1mb 77f 67f
3:00am 6 7 mph 1013.2mb 77f 69f
2:00am 8
mph
1013.4mb 78f 70f
1:00am 7 8 mph 1013.6mb 78f 72f
12:00am 7 8 mph 1013.7mb 78f 73f
Sun 05/22 11:00pm 7 8 mph 1013.4mb 78f 74f
10:00pm 9 10 mph 1012.8mb 78f 76f
9:00pm 9 10 mph 1012.3mb 79f 77f
8:00pm 2 5 mph 1012mb 79f 79f
7:00pm 11 14 mph 1011.7mb 79f 82f
6:00pm 11 14 mph 1011.3mb 79f 83f
5:00pm 13 16 mph 1010.7mb 79f 83f
4:00pm 11 15 mph 1011mb 80f 83f
3:00pm 13 17 mph 1011.3mb 80f 83f
2:00pm 13 20 mph 1011.7mb 80f 83f
1:00pm 11 15 mph 1012.3mb 80f 81f
12:00pm 13 17 mph 1012.7mb 79f 79f
11:00am 9 10 mph 1013.5mb 79f 79f
10:00am 9 13 mph 1013.8mb 78f 76f
9:00am 10 14 mph 1013.5mb 78f 74f
8:00am 13 15 mph 1013.4mb 78f 73f
7:00am 8 10 mph 1012.9mb 78f 72f
6:00am 9 10 mph 1012.5mb 79f 72f
5:00am 8 10 mph 1012.7mb 79f 72f
4:00am 7 10 mph 1012.9mb 79f 73f
3:00am 8 11 mph 1013.5mb 79f 73f
2:00am 6 9 mph 1014mb 79f 73f
1:00am 7 9 mph 1014.7mb 80f 74f
12:00am 10 13 mph 1014.8mb 80f 75f
Sat 05/21 11:00pm 9 10 mph 1014.6mb 80f 77f
10:00pm 15 16 mph 1014mb 80f 77f
9:00pm 13 14 mph 1014.2mb 80f 77f
8:00pm 10 13 mph 1014.3mb 81f 78f
7:00pm 10 11 mph 1013.8mb 81f 80f
6:00pm 3 5 mph 1014mb 81f 80f
5:00pm 5 6 mph 1014.4mb 80f 79f
4:00pm 8
mph
1014.9mb 80f 78f
3:00pm 10 11 mph 1015.7mb 80f 77f
2:00pm 9 10 mph 1016.5mb 79f 77f
1:00pm 8 10 mph 1017.4mb 78f 80f
12:00pm 6 8 mph 1017.7mb 78f 78f
11:00am 6 8 mph 1018.1mb 78f 78f
10:00am 5 7 mph 1018.3mb 78f 76f
9:00am 7 8 mph 1018.3mb 78f 74f
8:00am 2
mph
1017.6mb 78f 72f
7:00am  -  1 mph 1017.2mb 77f 71f
6:00am 2 3 mph 1016.5mb 78f 71f
5:00am 2 3 mph 1016.5mb 78f 71f
4:00am 2 3 mph 1016.4mb 78f 71f
3:00am 8 9 mph 1016.3mb 78f 72f
2:00am 3 6 mph 1016.7mb 78f 72f
1:00am 5 6 mph 1017.3mb 78f 72f
12:00am 8 11 mph 1018.2mb 78f 73f
Fri 05/20 11:00pm 9 11 mph 1019mb 78f 73f
10:00pm 9 11 mph 1019mb 78f 74f
9:00pm 8 11 mph 1018.9mb 78f 74f
8:00pm 5 7 mph 1017.7mb 78f 75f
7:00pm 10 11 mph 1016.9mb 79f 76f